Time;durP1;ratioP1;P1;durP2;ratioP2;P2;SDS_P1;SDS_P2;PMS_P1;PMS_P2;Temp;Humidity;BMP_temperature;BMP_pressure;BME280_temperature;BME280_humidity;BME280_pressure;Samples;Min_cycle;Max_cycle;Signal;HPM_P1;HPM_P2
2022/04/08 00:03:22;;;;;;;1.87;0.77;;;6.90;1.00;;;;;;8409680;28;20204;-66
2022/04/08 00:07:22;;;;;;;3.40;1.00;;;6.80;1.00;;;;;;8404071;28;20216;-64
2022/04/08 00:11:23;;;;;;;2.80;0.90;;;6.80;99.90;;;;;;8387935;28;20688;-66
2022/04/08 00:15:24;;;;;;;3.47;0.80;;;6.90;99.90;;;;;;8388575;28;20303;-68
2022/04/08 00:19:27;;;;;;;1.87;0.73;;;6.90;99.90;;;;;;8389570;28;20209;-66
2022/04/08 00:23:29;;;;;;;2.13;0.77;;;6.90;99.90;;;;;;8389162;28;20212;-63
2022/04/08 00:27:33;;;;;;;2.90;0.80;;;6.80;99.90;;;;;;8387660;28;20197;-65
2022/04/08 00:31:33;;;;;;;5.43;0.90;;;6.70;99.90;;;;;;8390252;28;20229;-65
2022/04/08 00:35:34;;;;;;;3.10;1.17;;;6.60;99.90;;;;;;8374591;28;20213;-67
2022/04/08 00:39:35;;;;;;;4.27;0.80;;;6.60;99.90;;;;;;8355456;28;20205;-64
2022/04/08 00:43:40;;;;;;;5.03;0.90;;;6.60;99.90;;;;;;8358958;28;20193;-65
2022/04/08 00:47:41;;;;;;;2.90;0.87;;;6.50;99.90;;;;;;8356712;28;20208;-63
2022/04/08 00:51:42;;;;;;;9.33;1.20;;;6.50;99.90;;;;;;8380556;28;20228;-64
2022/04/08 00:55:43;;;;;;;5.30;1.23;;;6.40;99.90;;;;;;8375126;28;20231;-64
2022/04/08 00:59:47;;;;;;;3.63;1.10;;;6.40;99.90;;;;;;8370349;28;20213;-66
2022/04/08 01:03:49;;;;;;;5.20;0.83;;;6.40;99.90;;;;;;8388159;28;20213;-66
2022/04/08 01:07:51;;;;;;;2.57;0.90;;;6.50;99.90;;;;;;8374095;28;20208;-68
2022/04/08 01:11:54;;;;;;;5.63;1.30;;;6.60;99.90;;;;;;8390862;28;20220;-64
2022/04/08 01:15:55;;;;;;;2.30;0.97;;;6.70;99.90;;;;;;8410029;28;20216;-64
2022/04/08 01:19:56;;;;;;;3.77;1.07;;;6.80;99.90;;;;;;8410634;28;20213;-66
2022/04/08 01:23:57;;;;;;;2.30;1.03;;;6.90;99.90;;;;;;8377872;28;20487;-65
2022/04/08 01:27:58;;;;;;;2.43;0.93;;;7.00;98.70;;;;;;8376829;28;20205;-66
2022/04/08 01:31:59;;;;;;;1.87;0.67;;;7.10;97.50;;;;;;8394620;28;20247;-66
2022/04/08 01:36:00;;;;;;;2.20;0.90;;;7.10;21.50;;;;;;8412831;28;20288;-65
2022/04/08 01:40:02;;;;;;;2.67;1.10;;;7.10;99.90;;;;;;8393045;28;20228;-63
2022/04/08 01:44:03;;;;;;;2.73;0.90;;;7.20;99.90;;;;;;8410993;28;20196;-62
2022/04/08 01:48:05;;;;;;;1.30;0.80;;;7.20;99.90;;;;;;8394776;28;20212;-67
2022/04/08 01:52:06;;;;;;;3.47;0.83;;;7.20;99.90;;;;;;8366286;28;20227;-64
2022/04/08 01:56:07;;;;;;;4.13;0.90;;;7.10;99.90;;;;;;8391487;28;20292;-63
2022/04/08 02:00:09;;;;;;;2.67;1.07;;;7.10;99.90;;;;;;8392386;28;20213;-66
2022/04/08 02:04:10;;;;;;;1.50;0.63;;;7.10;53.00;;;;;;8393510;28;20288;-63
2022/04/08 02:08:13;;;;;;;1.57;1.07;;;7.10;1.00;;;;;;8395191;28;20278;-66
2022/04/08 02:12:13;;;;;;;3.40;0.90;;;7.10;1.00;;;;;;8376421;28;20236;-65
2022/04/08 02:16:15;;;;;;;3.03;0.80;;;7.20;1.00;;;;;;8391880;28;20196;-65
2022/04/08 02:20:16;;;;;;;3.17;0.60;;;7.40;99.90;;;;;;8391999;28;20280;-65
2022/04/08 02:24:17;;;;;;;4.40;1.03;;;7.50;99.90;;;;;;8391276;28;20197;-66
2022/04/08 02:28:18;;;;;;;3.40;0.80;;;7.60;99.90;;;;;;8378705;28;20205;-65
2022/04/08 02:32:20;;;;;;;2.80;0.70;;;7.70;99.90;;;;;;8389293;28;20223;-67
2022/04/08 02:36:21;;;;;;;2.03;0.70;;;7.60;99.90;;;;;;8394367;28;20236;-64
2022/04/08 02:40:22;;;;;;;1.70;0.90;;;7.60;99.90;;;;;;8392245;28;20209;-66
2022/04/08 02:44:23;;;;;;;4.27;0.90;;;7.60;99.90;;;;;;8390256;28;20205;-65
2022/04/08 02:48:24;;;;;;;2.70;0.77;;;7.70;44.20;;;;;;8390480;28;20334;-64
2022/04/08 02:52:25;;;;;;;3.70;0.70;;;7.80;9.70;;;;;;8390438;28;20323;-62
2022/04/08 02:56:26;;;;;;;3.20;0.97;;;7.80;1.00;;;;;;8392299;28;20208;-65
2022/04/08 03:00:27;;;;;;;1.67;0.60;;;7.80;1.00;;;;;;8367389;28;20213;-65
2022/04/08 03:04:28;;;;;;;1.17;0.67;;;7.90;1.00;;;;;;8372297;28;20323;-66
2022/04/08 03:08:29;;;;;;;4.07;0.90;;;7.90;1.00;;;;;;8359488;28;20213;-64
2022/04/08 03:12:32;;;;;;;3.13;0.70;;;7.90;1.00;;;;;;8381494;28;20233;-64
2022/04/08 03:16:35;;;;;;;2.17;0.83;;;7.90;1.00;;;;;;8390024;28;20243;-65
2022/04/08 03:20:36;;;;;;;2.87;0.60;;;8.00;1.00;;;;;;8390272;28;20208;-64
2022/04/08 03:24:38;;;;;;;2.23;0.70;;;8.00;1.00;;;;;;8388689;28;20213;-65
2022/04/08 03:28:39;;;;;;;3.27;1.03;;;7.90;56.10;;;;;;8364733;28;20198;-66
2022/04/08 03:32:40;;;;;;;3.00;0.87;;;7.90;99.90;;;;;;8376972;28;20229;-67
2022/04/08 03:36:41;;;;;;;2.93;0.80;;;7.80;99.90;;;;;;8381139;28;20288;-63
2022/04/08 03:40:43;;;;;;;2.30;0.87;;;7.70;99.90;;;;;;8384090;28;20236;-67
2022/04/08 03:44:44;;;;;;;1.70;0.70;;;7.70;99.90;;;;;;8388318;28;20209;-65
2022/04/08 03:48:45;;;;;;;1.90;0.97;;;7.70;99.90;;;;;;8391097;28;20205;-63
2022/04/08 03:52:46;;;;;;;2.87;0.80;;;7.70;99.90;;;;;;8386487;28;20240;-67
2022/04/08 03:56:49;;;;;;;0.70;0.50;;;7.70;99.90;;;;;;8390236;28;20567;-65
2022/04/08 04:00:53;;;;;;;2.70;0.70;;;7.60;99.90;;;;;;8381886;28;20204;-64
2022/04/08 04:04:59;;;;;;;0.70;0.57;;;7.40;99.90;;;;;;8387307;28;20299;-62
2022/04/08 04:09:00;;;;;;;2.27;0.60;;;7.40;99.90;;;;;;8387425;28;20239;-65
2022/04/08 04:13:00;;;;;;;2.47;0.70;;;7.50;99.90;;;;;;8388233;28;20229;-65
2022/04/08 04:17:02;;;;;;;0.90;0.60;;;7.50;99.90;;;;;;8383177;28;20216;-65
2022/04/08 04:21:04;;;;;;;1.23;0.73;;;7.50;99.90;;;;;;8369632;28;20212;-63
2022/04/08 04:25:06;;;;;;;0.50;0.40;;;7.50;99.90;;;;;;8389216;28;20568;-65
2022/04/08 04:29:06;;;;;;;1.73;0.60;;;7.50;99.90;;;;;;8387672;28;20224;-63
2022/04/08 04:33:08;;;;;;;2.23;0.70;;;7.40;99.90;;;;;;8387578;28;20286;-68
2022/04/08 04:37:09;;;;;;;1.57;0.70;;;7.50;99.90;;;;;;8368233;28;20202;-65
2022/04/08 04:41:09;;;;;;;1.17;0.60;;;7.60;99.90;;;;;;8356420;28;20209;-68
2022/04/08 04:45:11;;;;;;;1.27;0.60;;;7.60;99.90;;;;;;8354443;28;20201;-68
2022/04/08 04:49:12;;;;;;;1.63;0.70;;;7.70;99.90;;;;;;8353509;28;20216;-64
2022/04/08 04:53:13;;;;;;;1.43;0.70;;;7.80;99.90;;;;;;8382918;28;20227;-66
2022/04/08 04:57:15;;;;;;;2.37;0.60;;;7.80;99.90;;;;;;8386751;28;20196;-67
2022/04/08 05:01:16;;;;;;;1.53;0.60;;;7.80;99.90;;;;;;8386913;28;20217;-66
2022/04/08 05:05:17;;;;;;;3.90;0.90;;;7.80;99.90;;;;;;8387445;28;20227;-64
2022/04/08 05:09:18;;;;;;;4.10;0.90;;;7.80;99.90;;;;;;8370149;28;20323;-65
2022/04/08 05:13:19;;;;;;;2.97;0.80;;;7.80;99.90;;;;;;8387011;28;20231;-68
2022/04/08 05:17:20;;;;;;;2.17;0.80;;;7.80;99.90;;;;;;8386608;28;20205;-65
2022/04/08 05:21:21;;;;;;;1.77;0.73;;;7.90;99.90;;;;;;8388721;28;20205;-66
2022/04/08 05:25:22;;;;;;;2.13;1.33;;;7.90;99.90;;;;;;8387967;28;20209;-68
2022/04/08 05:29:24;;;;;;;3.17;0.80;;;7.90;99.90;;;;;;8387261;28;20244;-65
2022/04/08 05:33:25;;;;;;;1.57;1.00;;;7.90;99.90;;;;;;8388377;28;20221;-65
2022/04/08 05:37:28;;;;;;;2.57;0.80;;;7.90;99.90;;;;;;8356206;28;20213;-67
2022/04/08 05:41:29;;;;;;;1.47;0.80;;;8.00;99.90;;;;;;8353727;28;20213;-68
2022/04/08 05:45:29;;;;;;;1.37;0.70;;;8.00;99.90;;;;;;8352617;28;20214;-64
2022/04/08 05:49:30;;;;;;;1.43;0.80;;;8.10;99.90;;;;;;8366918;28;20232;-66
2022/04/08 05:53:31;;;;;;;2.60;1.10;;;8.00;99.90;;;;;;8386497;28;20228;-67
2022/04/08 05:57:40;;;;;;;1.63;0.93;;;8.00;99.90;;;;;;8388086;28;20201;-65
2022/04/08 06:01:40;;;;;;;2.27;0.83;;;8.10;99.90;;;;;;8389577;28;20219;-64
2022/04/08 06:05:42;;;;;;;1.23;0.90;;;8.10;99.90;;;;;;8391191;28;20229;-67
2022/04/08 06:09:43;;;;;;;0.80;0.80;;;8.10;99.90;;;;;;8390810;28;20202;-63
2022/04/08 06:13:44;;;;;;;2.00;0.70;;;8.00;99.90;;;;;;8390547;28;20221;-63
2022/04/08 06:17:46;;;;;;;1.43;0.60;;;8.10;99.90;;;;;;8402907;28;20254;-65
2022/04/08 06:21:47;;;;;;;2.03;0.60;;;8.10;99.90;;;;;;8384772;28;20212;-67
2022/04/08 06:25:48;;;;;;;0.73;0.73;;;8.10;99.90;;;;;;8392483;28;20234;-64
2022/04/08 06:29:49;;;;;;;2.77;0.80;;;8.10;99.90;;;;;;8391438;28;20214;-64
2022/04/08 06:33:50;;;;;;;1.17;0.63;;;8.00;99.90;;;;;;8389509;28;20315;-65
2022/04/08 06:37:57;;;;;;;1.20;0.70;;;8.20;99.90;;;;;;8357430;28;20209;-65
2022/04/08 06:41:59;;;;;;;1.90;0.90;;;8.30;99.90;;;;;;8357406;28;20288;-67
2022/04/08 06:46:00;;;;;;;1.27;0.87;;;8.40;99.90;;;;;;8341923;28;20231;-64
2022/04/08 06:50:01;;;;;;;1.00;0.60;;;8.50;99.90;;;;;;8370348;28;20284;-67
2022/04/08 06:54:02;;;;;;;2.47;0.90;;;8.40;99.90;;;;;;8390152;28;20221;-66
2022/04/08 06:58:03;;;;;;;1.30;0.90;;;8.50;99.90;;;;;;8388885;28;20224;-65
2022/04/08 07:02:04;;;;;;;1.73;0.70;;;8.50;99.90;;;;;;8388003;28;20221;-65
2022/04/08 07:06:05;;;;;;;2.23;1.13;;;8.50;99.90;;;;;;8390445;28;20239;-63
2022/04/08 07:10:07;;;;;;;1.37;0.87;;;8.60;99.90;;;;;;8389469;28;20209;-63
2022/04/08 07:14:08;;;;;;;2.53;0.70;;;8.30;99.90;;;;;;8388310;28;20228;-64
2022/04/08 07:18:12;;;;;;;1.73;1.10;;;8.20;99.90;;;;;;8386418;28;20375;-68
2022/04/08 07:22:12;;;;;;;1.07;0.97;;;8.10;1.00;;;;;;8382581;28;20265;-67
2022/04/08 07:26:13;;;;;;;1.13;1.00;;;7.60;99.90;;;;;;8362674;28;20232;-64
2022/04/08 07:30:19;;;;;;;3.00;1.40;;;7.10;99.90;;;;;;8372889;28;20229;-65
2022/04/08 07:34:23;;;;;;;2.50;1.40;;;6.70;99.90;;;;;;8393289;28;20227;-64
2022/04/08 07:38:24;;;;;;;2.77;1.80;;;6.50;99.90;;;;;;8381336;28;20227;-63
2022/04/08 07:42:25;;;;;;;2.33;1.80;;;6.30;99.90;;;;;;8389198;28;20207;-66
2022/04/08 07:46:27;;;;;;;1.83;1.10;;;5.70;99.90;;;;;;8388490;28;20600;-64
2022/04/08 07:50:28;;;;;;;1.03;0.80;;;5.30;99.90;;;;;;8386869;28;20209;-65
2022/04/08 07:54:29;;;;;;;0.87;0.70;;;5.20;99.90;;;;;;8373007;28;20223;-66
2022/04/08 07:58:30;;;;;;;1.20;0.77;;;5.10;99.90;;;;;;8370439;28;20254;-62
2022/04/08 08:02:31;;;;;;;1.10;1.00;;;5.20;99.90;;;;;;8404120;28;20212;-67
2022/04/08 08:06:32;;;;;;;1.50;0.93;;;5.60;99.90;;;;;;8388333;28;20218;-66
2022/04/08 08:10:39;;;;;;;1.00;0.87;;;6.00;99.90;;;;;;8385105;28;20200;-67
2022/04/08 08:14:39;;;;;;;0.83;0.83;;;6.10;99.90;;;;;;8383883;28;20256;-64
2022/04/08 08:18:40;;;;;;;1.10;1.00;;;6.30;99.90;;;;;;8385547;28;20288;-63
2022/04/08 08:22:42;;;;;;;2.80;1.00;;;6.50;1.00;;;;;;8403309;28;20222;-65
2022/04/08 08:26:43;;;;;;;2.73;1.30;;;6.40;1.00;;;;;;8386926;28;20239;-66
2022/04/08 08:30:45;;;;;;;2.37;1.57;;;6.60;1.00;;;;;;8391015;28;20557;-63
2022/04/08 08:34:46;;;;;;;2.17;1.53;;;6.60;1.00;;;;;;8385881;28;20370;-66
2022/04/08 08:38:47;;;;;;;2.00;1.70;;;6.70;99.90;;;;;;8387129;28;20213;-66
2022/04/08 08:42:48;;;;;;;2.47;1.87;;;6.70;99.90;;;;;;8386962;28;20201;-62
2022/04/08 08:46:51;;;;;;;3.60;2.43;;;6.70;99.90;;;;;;8387982;28;20243;-65
2022/04/08 08:50:54;;;;;;;4.63;2.67;;;6.70;17.30;;;;;;8389563;28;20231;-67
2022/04/08 08:54:55;;;;;;;2.50;2.30;;;6.60;73.00;;;;;;8387921;28;20215;-63
2022/04/08 08:58:56;;;;;;;3.70;2.30;;;6.40;99.90;;;;;;8392446;28;20209;-65
2022/04/08 09:02:57;;;;;;;3.47;1.80;;;6.30;1.00;;;;;;8390159;28;20204;-65
2022/04/08 09:06:58;;;;;;;3.33;2.23;;;6.30;99.90;;;;;;8388436;28;20205;-64
2022/04/08 09:11:00;;;;;;;2.80;2.20;;;6.20;1.00;;;;;;8389245;28;20240;-64
2022/04/08 09:15:02;;;;;;;2.63;2.33;;;6.10;1.00;;;;;;8406829;28;20279;-65
2022/04/08 09:19:10;;;;;;;2.70;2.50;;;6.00;1.00;;;;;;8391395;28;20204;-67
2022/04/08 09:23:13;;;;;;;6.67;3.10;;;6.10;1.00;;;;;;8359808;28;20331;-64
2022/04/08 09:27:14;;;;;;;2.30;2.10;;;6.50;1.00;;;;;;8378719;28;20216;-66
2022/04/08 09:31:19;;;;;;;2.60;2.40;;;6.90;99.90;;;;;;8390625;28;20224;-68
2022/04/08 09:35:20;;;;;;;2.07;1.90;;;7.20;99.90;;;;;;8396631;28;20224;-66
2022/04/08 09:39:21;;;;;;;3.00;1.70;;;7.60;1.00;;;;;;8395106;28;20205;-67
2022/04/08 09:43:37;;;;;;;2.70;2.13;;;7.70;1.00;;;;;;8397025;28;20221;-66
2022/04/08 09:47:38;;;;;;;1.77;1.60;;;8.10;24.80;;;;;;8396840;28;20211;-69
2022/04/08 09:51:40;;;;;;;2.80;1.70;;;8.30;1.00;;;;;;8393805;28;20236;-68
2022/04/08 09:55:45;;;;;;;2.83;2.10;;;8.30;99.90;;;;;;8391279;28;20263;-68
2022/04/08 09:59:48;;;;;;;2.17;1.33;;;8.40;44.10;;;;;;8396317;28;20217;-68
2022/04/08 10:03:51;;;;;;;1.80;1.70;;;8.60;1.00;;;;;;8396200;28;20205;-69
2022/04/08 10:07:53;;;;;;;1.60;1.40;;;8.90;79.10;;;;;;8378124;28;20197;-68
2022/04/08 10:12:13;;;;;;;2.73;1.10;;;9.30;1.00;;;;;;8378832;28;20241;-67
2022/04/08 10:16:18;;;;;;;2.50;1.60;;;9.70;99.90;;;;;;8405758;28;20203;-66
2022/04/08 10:20:20;;;;;;;2.80;1.10;;;10.30;1.00;;;;;;8394409;28;20204;-67
2022/04/08 10:24:29;;;;;;;1.83;1.10;;;10.80;99.90;;;;;;8390559;28;20268;-68
2022/04/08 10:28:37;;;;;;;2.97;1.00;;;11.00;99.90;;;;;;8393200;28;20242;-67
2022/04/08 10:32:39;;;;;;;2.07;0.90;;;11.50;99.90;;;;;;8391923;28;20223;-68
2022/04/08 10:36:44;;;;;;;1.53;1.10;;;11.40;98.70;;;;;;8392211;28;20286;-68
2022/04/08 10:40:53;;;;;;;2.27;0.80;;;11.50;1.00;;;;;;8392363;28;20210;-65
2022/04/08 10:44:54;;;;;;;1.73;0.50;;;11.90;1.00;;;;;;8388730;28;20208;-66
2022/04/08 10:48:59;;;;;;;0.83;0.40;;;12.40;1.00;;;;;;8388002;28;20210;-66
2022/04/08 10:53:06;;;;;;;0.87;0.40;;;11.50;99.90;;;;;;8375653;28;20238;-69
2022/04/08 10:57:07;;;;;;;1.07;0.40;;;11.60;99.90;;;;;;8376600;28;20207;-69
2022/04/08 11:01:27;;;;;;;0.70;0.40;;;12.10;99.90;;;;;;8386958;28;20245;-68
2022/04/08 11:05:28;;;;;;;1.53;0.60;;;12.50;99.90;;;;;;8391233;28;20200;-68
2022/04/08 11:09:30;;;;;;;1.40;0.60;;;12.70;99.90;;;;;;8386224;28;20243;-66
2022/04/08 11:13:31;;;;;;;0.80;0.40;;;12.60;99.90;;;;;;8390382;28;20288;-64
2022/04/08 11:17:35;;;;;;;1.87;0.50;;;12.60;99.90;;;;;;8389844;28;20200;-65
2022/04/08 11:21:38;;;;;;;1.37;0.50;;;13.10;99.90;;;;;;8387659;28;20219;-64
2022/04/08 11:25:38;;;;;;;0.93;0.40;;;13.10;99.90;;;;;;8387982;28;20201;-66
2022/04/08 11:29:40;;;;;;;0.40;0.20;;;13.00;99.90;;;;;;8353857;28;20209;-65
2022/04/08 11:33:40;;;;;;;0.63;0.40;;;12.50;53.60;;;;;;8365383;28;20224;-63
2022/04/08 11:37:41;;;;;;;1.27;0.57;;;12.10;82.20;;;;;;8387629;28;20201;-65
2022/04/08 11:41:42;;;;;;;2.17;0.53;;;11.80;80.30;;;;;;8389600;28;20298;-68
2022/04/08 11:45:48;;;;;;;1.50;0.70;;;11.50;99.90;;;;;;8391670;28;20230;-66
2022/04/08 11:50:07;;;;;;;1.47;1.30;;;10.40;1.00;;;;;;8394596;28;20209;-65
2022/04/08 11:54:08;;;;;;;1.07;0.97;;;9.70;99.90;;;;;;8388348;28;20225;-65
2022/04/08 11:58:22;;;;;;;1.13;0.83;;;9.30;99.90;;;;;;8391865;28;20193;-64
2022/04/08 12:02:23;;;;;;;1.77;0.90;;;9.20;99.90;;;;;;8410550;28;20216;-67
2022/04/08 12:06:39;;;;;;;1.83;1.20;;;9.20;99.90;;;;;;8410570;28;20193;-65
2022/04/08 12:10:40;;;;;;;1.57;1.10;;;9.30;99.90;;;;;;8373256;28;20209;-63
2022/04/08 12:14:42;;;;;;;1.40;0.73;;;9.30;99.90;;;;;;8364893;28;20225;-67
2022/04/08 12:18:48;;;;;;;1.60;1.00;;;9.70;99.90;;;;;;8359226;28;20204;-64
2022/04/08 12:22:50;;;;;;;1.63;0.70;;;10.10;1.00;;;;;;8371251;28;20212;-66
2022/04/08 12:26:56;;;;;;;1.53;0.70;;;10.30;1.00;;;;;;8378697;28;20205;-63
2022/04/08 12:31:00;;;;;;;3.13;0.77;;;10.60;99.90;;;;;;8389701;28;20243;-65
2022/04/08 12:35:01;;;;;;;2.90;0.90;;;10.70;99.90;;;;;;8389498;28;20206;-65
2022/04/08 12:39:02;;;;;;;2.13;0.60;;;11.30;99.90;;;;;;8391100;28;20203;-64
2022/04/08 12:43:03;;;;;;;0.90;0.63;;;11.60;99.90;;;;;;8390968;28;20226;-65
2022/04/08 12:47:05;;;;;;;1.80;0.50;;;11.30;99.90;;;;;;8389950;28;20207;-65
2022/04/08 12:51:07;;;;;;;2.07;0.60;;;11.50;99.90;;;;;;8387418;28;20305;-64
2022/04/08 12:55:09;;;;;;;3.00;0.80;;;11.40;99.90;;;;;;8379404;28;20259;-66
2022/04/08 12:59:11;;;;;;;1.60;0.80;;;11.10;99.90;;;;;;8390256;28;20231;-66
2022/04/08 13:03:12;;;;;;;1.50;0.90;;;10.60;99.90;;;;;;8390848;28;20201;-66
2022/04/08 13:07:13;;;;;;;2.30;1.03;;;10.40;99.90;;;;;;8396071;28;20347;-66
2022/04/08 13:11:14;;;;;;;2.60;0.80;;;10.30;99.90;;;;;;8399229;28;20212;-66
2022/04/08 13:15:15;;;;;;;1.90;0.80;;;10.10;99.90;;;;;;8397380;28;20205;-65
2022/04/08 13:19:16;;;;;;;0.87;0.60;;;10.50;99.90;;;;;;8399655;28;20227;-67
2022/04/08 13:23:17;;;;;;;0.73;0.57;;;10.70;99.90;;;;;;8382039;28;20198;-67
2022/04/08 13:27:18;;;;;;;3.00;0.67;;;11.10;99.90;;;;;;8391191;28;20206;-68
2022/04/08 13:31:19;;;;;;;0.80;0.60;;;11.50;99.90;;;;;;8395323;28;20221;-66
2022/04/08 13:35:20;;;;;;;2.20;0.70;;;11.50;99.90;;;;;;8410837;28;20218;-63
2022/04/08 13:39:21;;;;;;;1.23;0.60;;;11.40;99.90;;;;;;8394530;28;20290;-68
2022/04/08 13:43:22;;;;;;;1.30;0.70;;;11.60;99.90;;;;;;8394380;28;20215;-66
2022/04/08 13:47:24;;;;;;;1.63;0.70;;;11.80;99.90;;;;;;8410783;28;20207;-68
2022/04/08 13:51:27;;;;;;;2.00;0.73;;;11.70;77.50;;;;;;8392082;28;20324;-65
2022/04/08 13:55:32;;;;;;;3.40;0.80;;;11.30;94.50;;;;;;8387877;28;20275;-67
2022/04/08 13:59:33;;;;;;;3.50;1.00;;;11.10;99.90;;;;;;8392072;28;20211;-67
2022/04/08 14:03:34;;;;;;;6.10;3.57;;;11.20;99.90;;;;;;8402717;28;20294;-66
2022/04/08 14:07:35;;;;;;;11.03;10.00;;;11.50;99.90;;;;;;8394062;28;20228;-68
2022/04/08 14:11:36;;;;;;;1.53;0.90;;;11.50;99.90;;;;;;8391248;28;20231;-66
2022/04/08 14:15:37;;;;;;;2.23;0.90;;;11.30;98.70;;;;;;8392469;28;20210;-68
2022/04/08 14:19:38;;;;;;;2.33;0.90;;;11.00;99.90;;;;;;8390748;28;20211;-67
2022/04/08 14:23:40;;;;;;;1.63;0.80;;;10.90;99.90;;;;;;8394660;28;20206;-66
2022/04/08 14:27:42;;;;;;;1.00;0.70;;;10.90;99.90;;;;;;8392478;28;20203;-68
2022/04/08 14:31:44;;;;;;;1.33;0.73;;;11.10;99.90;;;;;;8391584;28;20298;-67
2022/04/08 14:35:46;;;;;;;4.47;2.90;;;10.90;99.90;;;;;;8384407;28;20663;-68
2022/04/08 14:39:47;;;;;;;7.77;3.83;;;10.70;99.90;;;;;;8358431;28;20521;-66
2022/04/08 14:43:48;;;;;;;19.27;10.43;;;10.60;99.90;;;;;;8362283;28;20223;-68
2022/04/08 14:47:53;;;;;;;3.40;1.70;;;10.50;99.90;;;;;;8359948;28;20201;-67
2022/04/08 14:51:56;;;;;;;3.10;1.47;;;10.30;99.90;;;;;;8390001;28;20229;-67
2022/04/08 14:55:57;;;;;;;3.67;2.90;;;10.40;99.90;;;;;;8393028;28;20201;-66
2022/04/08 14:59:58;;;;;;;1.70;0.93;;;10.60;99.90;;;;;;8393539;28;20220;-68
2022/04/08 15:03:59;;;;;;;2.80;0.90;;;10.70;99.90;;;;;;8395503;28;20198;-67
2022/04/08 15:08:00;;;;;;;2.17;1.00;;;10.80;99.90;;;;;;8393515;28;20212;-67
2022/04/08 15:12:01;;;;;;;2.80;0.90;;;10.70;99.90;;;;;;8392684;28;20219;-68
2022/04/08 15:16:02;;;;;;;3.33;2.43;;;10.70;99.90;;;;;;8385200;28;20198;-67
2022/04/08 15:20:04;;;;;;;1.40;1.03;;;10.80;99.90;;;;;;8394364;28;20209;-67
2022/04/08 15:24:05;;;;;;;5.00;3.13;;;10.90;99.90;;;;;;8392931;28;20203;-65
2022/04/08 15:28:06;;;;;;;10.23;7.00;;;10.80;99.90;;;;;;8393695;28;20232;-69
2022/04/08 15:32:07;;;;;;;2.80;1.50;;;10.80;99.90;;;;;;8394673;28;20211;-68
2022/04/08 15:36:08;;;;;;;1.83;1.03;;;10.80;99.90;;;;;;8393403;28;20202;-67
2022/04/08 15:40:11;;;;;;;2.13;1.30;;;10.70;99.90;;;;;;8391450;28;20208;-66
2022/04/08 15:44:12;;;;;;;2.60;1.30;;;10.60;99.90;;;;;;8391041;28;20247;-67
2022/04/08 15:48:13;;;;;;;2.20;1.10;;;10.60;99.90;;;;;;8374250;28;20205;-65
2022/04/08 15:52:14;;;;;;;2.70;1.17;;;10.50;99.90;;;;;;8391399;28;20226;-67
2022/04/08 15:56:15;;;;;;;1.40;0.90;;;10.40;99.90;;;;;;8391499;28;20207;-69
2022/04/08 16:00:16;;;;;;;1.70;1.20;;;10.30;99.90;;;;;;8387728;28;20216;-66
2022/04/08 16:04:17;;;;;;;3.40;2.00;;;10.30;99.90;;;;;;8388481;28;20272;-68
2022/04/08 16:08:18;;;;;;;1.60;1.10;;;10.10;99.90;;;;;;8390093;28;20207;-69
2022/04/08 16:12:19;;;;;;;2.03;1.60;;;9.80;99.90;;;;;;8386398;28;20224;-63
2022/04/08 16:16:20;;;;;;;5.00;3.93;;;9.60;99.90;;;;;;8388201;28;20201;-69
2022/04/08 16:20:21;;;;;;;1.37;1.13;;;9.40;1.00;;;;;;8388019;28;20212;-68
2022/04/08 16:24:22;;;;;;;3.57;1.60;;;9.20;1.00;;;;;;8386878;28;20201;-64
2022/04/08 16:28:23;;;;;;;2.30;1.47;;;9.10;1.00;;;;;;8376324;28;20676;-64
2022/04/08 16:32:24;;;;;;;2.60;1.63;;;8.90;1.00;;;;;;8385973;28;20232;-64
2022/04/08 16:36:26;;;;;;;1.83;1.30;;;8.80;1.00;;;;;;8388804;28;20212;-65
2022/04/08 16:40:27;;;;;;;3.77;2.63;;;8.70;1.00;;;;;;8387401;28;20209;-64
2022/04/08 16:44:28;;;;;;;18.50;11.43;;;8.60;1.00;;;;;;8386683;28;20207;-67
2022/04/08 16:48:31;;;;;;;11.27;4.63;;;8.50;1.00;;;;;;8389319;28;20208;-69
2022/04/08 16:52:32;;;;;;;29.47;15.67;;;8.40;1.00;;;;;;8388475;28;20229;-67
2022/04/08 16:56:32;;;;;;;25.70;16.43;;;8.30;1.00;;;;;;8384819;28;20212;-62
2022/04/08 17:00:34;;;;;;;6.47;5.33;;;8.20;1.00;;;;;;8376363;28;20232;-67
2022/04/08 17:04:35;;;;;;;1.53;1.43;;;8.10;1.00;;;;;;8384315;28;20201;-67
2022/04/08 17:08:36;;;;;;;2.03;1.30;;;8.00;26.70;;;;;;8387357;28;20242;-67
2022/04/08 17:12:37;;;;;;;5.03;2.77;;;7.90;99.90;;;;;;8384083;28;20225;-65
2022/04/08 17:16:38;;;;;;;13.17;6.87;;;7.70;99.90;;;;;;8403066;28;20225;-63
2022/04/08 17:20:39;;;;;;;11.77;5.77;;;7.60;99.90;;;;;;8387411;28;20221;-67
2022/04/08 17:24:40;;;;;;;11.93;6.60;;;7.50;99.90;;;;;;8381487;28;20208;-68
2022/04/08 17:28:41;;;;;;;11.67;4.57;;;7.40;99.90;;;;;;8378848;28;20241;-64
2022/04/08 17:32:42;;;;;;;55.40;17.23;;;7.20;1.00;;;;;;8386192;28;20231;-67
2022/04/08 17:36:43;;;;;;;63.67;23.90;;;7.10;1.00;;;;;;8386391;28;20300;-67
2022/04/08 17:40:44;;;;;;;15.23;6.93;;;7.00;21.70;;;;;;8382615;28;20213;-64
2022/04/08 17:44:45;;;;;;;7.87;3.93;;;6.90;99.90;;;;;;8385653;28;20336;-68
2022/04/08 17:48:46;;;;;;;10.27;3.87;;;6.80;99.90;;;;;;8383929;28;20220;-62
2022/04/08 17:52:47;;;;;;;21.17;10.33;;;6.80;99.90;;;;;;8402965;28;20220;-64
2022/04/08 17:56:48;;;;;;;5.30;3.47;;;6.70;99.90;;;;;;8374319;28;20205;-63
2022/04/08 18:00:50;;;;;;;2.37;1.93;;;6.60;99.90;;;;;;8389855;28;20239;-63
2022/04/08 18:04:51;;;;;;;3.33;2.37;;;6.60;1.00;;;;;;8390891;28;20208;-62
2022/04/08 18:08:51;;;;;;;3.00;2.20;;;6.50;1.00;;;;;;8384494;28;20209;-64
2022/04/08 18:12:52;;;;;;;4.97;2.23;;;6.50;1.00;;;;;;8388139;28;20221;-63
2022/04/08 18:16:56;;;;;;;3.57;2.20;;;6.40;1.00;;;;;;8388144;28;20301;-64
2022/04/08 18:21:01;;;;;;;3.87;2.00;;;6.40;1.00;;;;;;8409097;28;20241;-67
2022/04/08 18:25:02;;;;;;;3.33;1.87;;;6.30;1.00;;;;;;8393442;28;20212;-68
2022/04/08 18:29:03;;;;;;;3.07;2.17;;;6.30;1.00;;;;;;8394099;28;20232;-67
2022/04/08 18:33:04;;;;;;;3.87;2.17;;;6.30;1.00;;;;;;8392039;28;20224;-66
2022/04/08 18:37:05;;;;;;;2.30;1.80;;;6.20;1.00;;;;;;8393469;28;20189;-66
2022/04/08 18:41:06;;;;;;;3.30;1.93;;;6.20;1.00;;;;;;8396522;28;20197;-68
2022/04/08 18:45:08;;;;;;;2.97;1.80;;;6.20;1.00;;;;;;8392965;28;20193;-67
2022/04/08 18:49:09;;;;;;;5.57;2.30;;;6.10;1.00;;;;;;8392588;28;20197;-65
2022/04/08 18:53:10;;;;;;;3.37;2.17;;;6.10;1.00;;;;;;8385186;28;20404;-67
2022/04/08 18:57:11;;;;;;;2.30;2.10;;;6.00;36.00;;;;;;8384702;28;20196;-68
2022/04/08 19:01:12;;;;;;;3.07;2.17;;;6.00;97.20;;;;;;8377107;28;20244;-68
2022/04/08 19:05:13;;;;;;;4.70;1.90;;;6.00;99.90;;;;;;8363887;28;20202;-68
2022/04/08 19:09:14;;;;;;;3.10;1.97;;;6.00;73.10;;;;;;8390002;28;20201;-68
2022/04/08 19:13:15;;;;;;;3.83;1.77;;;6.00;99.90;;;;;;8394133;28;20231;-69
2022/04/08 19:17:16;;;;;;;2.80;2.10;;;5.90;99.90;;;;;;8392010;28;20212;-68
2022/04/08 19:21:17;;;;;;;3.30;2.10;;;5.90;99.90;;;;;;8408723;28;20209;-68
2022/04/08 19:25:18;;;;;;;4.57;2.90;;;5.80;99.90;;;;;;8381529;28;20242;-68
2022/04/08 19:29:21;;;;;;;5.50;3.10;;;5.80;99.90;;;;;;8392936;28;20209;-67
2022/04/08 19:33:24;;;;;;;5.37;2.77;;;5.80;1.00;;;;;;8395862;28;20320;-66
2022/04/08 19:37:28;;;;;;;5.43;3.43;;;5.70;1.00;;;;;;8395086;28;20193;-67
2022/04/08 19:41:29;;;;;;;5.40;3.93;;;5.70;1.00;;;;;;8393155;28;20204;-68
2022/04/08 19:45:30;;;;;;;6.93;3.60;;;5.70;1.00;;;;;;8395285;28;20244;-67
2022/04/08 19:49:33;;;;;;;5.20;3.37;;;5.60;99.90;;;;;;8390925;28;20213;-69
2022/04/08 19:53:34;;;;;;;5.87;3.10;;;5.60;99.90;;;;;;8392989;28;20221;-68
2022/04/08 19:57:35;;;;;;;5.97;3.03;;;5.60;99.90;;;;;;8393093;28;20204;-68
2022/04/08 20:01:38;;;;;;;6.60;3.60;;;5.50;1.00;;;;;;8391432;28;20270;-67
2022/04/08 20:05:41;;;;;;;5.10;3.23;;;5.40;98.80;;;;;;8408131;28;20230;-68
2022/04/08 20:09:43;;;;;;;5.23;3.47;;;5.40;99.90;;;;;;8393838;28;20295;-68
2022/04/08 20:13:46;;;;;;;4.37;2.60;;;5.30;99.90;;;;;;8394606;28;20250;-68
2022/04/08 20:17:47;;;;;;;4.97;2.83;;;5.10;1.00;;;;;;8409404;28;20203;-67
2022/04/08 20:21:48;;;;;;;4.37;3.20;;;5.00;99.90;;;;;;8366426;28;20235;-68
2022/04/08 20:25:49;;;;;;;5.33;3.00;;;4.80;99.90;;;;;;8389618;28;20219;-68
2022/04/08 20:29:50;;;;;;;3.90;2.60;;;4.70;99.90;;;;;;8407856;28;20214;-67
2022/04/08 20:33:51;;;;;;;3.93;2.80;;;4.60;99.90;;;;;;8392232;28;20225;-64
2022/04/08 20:37:54;;;;;;;4.97;2.77;;;4.60;99.90;;;;;;8388675;28;20212;-67
2022/04/08 20:41:55;;;;;;;5.77;3.97;;;4.60;99.90;;;;;;8390066;28;20246;-66
2022/04/08 20:45:58;;;;;;;5.80;4.10;;;4.50;99.90;;;;;;8387886;28;20209;-64
2022/04/08 20:49:59;;;;;;;6.67;5.67;;;4.40;99.90;;;;;;8389896;28;20217;-68
2022/04/08 20:54:00;;;;;;;7.83;5.80;;;4.50;99.90;;;;;;8365122;28;20343;-68
2022/04/08 20:58:03;;;;;;;10.63;5.40;;;4.40;99.90;;;;;;8385562;28;20202;-66
2022/04/08 21:02:04;;;;;;;6.13;4.80;;;4.40;99.90;;;;;;8389008;28;20214;-67
2022/04/08 21:06:09;;;;;;;7.47;5.03;;;4.40;99.90;;;;;;8389810;28;20204;-68
2022/04/08 21:10:10;;;;;;;5.67;4.30;;;4.50;99.90;;;;;;8388781;28;20207;-68
2022/04/08 21:14:11;;;;;;;5.27;4.00;;;4.50;99.90;;;;;;8402771;28;20237;-68